sensor_id;sensor_type;location;lat;lon;timestamp;P1;durP1;ratioP1;P2;durP2;ratioP2
6840;SDS011;3458;53.678;14.080;2023-10-13T00:02:01;4.83;;;2.47;;
6840;SDS011;3458;53.678;14.080;2023-10-13T00:04:29;4.43;;;1.87;;
6840;SDS011;3458;53.678;14.080;2023-10-13T00:06:57;4.20;;;1.70;;
6840;SDS011;3458;53.678;14.080;2023-10-13T00:09:23;3.03;;;2.20;;
6840;SDS011;3458;53.678;14.080;2023-10-13T00:12:02;3.37;;;1.83;;
6840;SDS011;3458;53.678;14.080;2023-10-13T00:14:29;3.10;;;1.63;;
6840;SDS011;3458;53.678;14.080;2023-10-13T00:17:02;12.70;;;2.00;;
6840;SDS011;3458;53.678;14.080;2023-10-13T00:19:29;3.20;;;2.03;;
6840;SDS011;3458;53.678;14.080;2023-10-13T00:22:03;6.43;;;2.10;;
6840;SDS011;3458;53.678;14.080;2023-10-13T00:24:34;3.33;;;2.03;;
6840;SDS011;3458;53.678;14.080;2023-10-13T00:27:07;10.57;;;2.00;;
6840;SDS011;3458;53.678;14.080;2023-10-13T00:30:05;6.03;;;2.90;;
6840;SDS011;3458;53.678;14.080;2023-10-13T00:32:46;6.43;;;2.17;;
6840;SDS011;3458;53.678;14.080;2023-10-13T00:35:17;6.13;;;2.30;;
6840;SDS011;3458;53.678;14.080;2023-10-13T00:38:01;6.63;;;2.70;;
6840;SDS011;3458;53.678;14.080;2023-10-13T00:40:30;15.13;;;2.70;;
6840;SDS011;3458;53.678;14.080;2023-10-13T00:42:57;3.00;;;2.17;;
6840;SDS011;3458;53.678;14.080;2023-10-13T00:45:41;7.53;;;2.60;;
6840;SDS011;3458;53.678;14.080;2023-10-13T00:48:08;7.70;;;2.10;;
6840;SDS011;3458;53.678;14.080;2023-10-13T00:50:36;5.27;;;2.10;;
6840;SDS011;3458;53.678;14.080;2023-10-13T00:53:02;10.63;;;3.00;;
6840;SDS011;3458;53.678;14.080;2023-10-13T00:55:29;6.50;;;2.70;;
6840;SDS011;3458;53.678;14.080;2023-10-13T00:57:58;15.80;;;2.43;;
6840;SDS011;3458;53.678;14.080;2023-10-13T01:00:28;4.63;;;2.23;;
6840;SDS011;3458;53.678;14.080;2023-10-13T01:02:58;4.63;;;2.37;;
6840;SDS011;3458;53.678;14.080;2023-10-13T01:05:31;8.17;;;2.30;;
6840;SDS011;3458;53.678;14.080;2023-10-13T01:08:01;13.70;;;2.40;;
6840;SDS011;3458;53.678;14.080;2023-10-13T01:10:27;11.47;;;2.57;;
6840;SDS011;3458;53.678;14.080;2023-10-13T01:12:53;11.60;;;3.00;;
6840;SDS011;3458;53.678;14.080;2023-10-13T01:15:19;14.13;;;2.93;;
6840;SDS011;3458;53.678;14.080;2023-10-13T01:17:54;5.30;;;2.50;;
6840;SDS011;3458;53.678;14.080;2023-10-13T01:20:30;8.93;;;2.77;;
6840;SDS011;3458;53.678;14.080;2023-10-13T01:22:58;8.90;;;2.13;;
6840;SDS011;3458;53.678;14.080;2023-10-13T01:25:24;9.60;;;2.20;;
6840;SDS011;3458;53.678;14.080;2023-10-13T01:27:53;4.87;;;2.00;;
6840;SDS011;3458;53.678;14.080;2023-10-13T01:30:20;15.23;;;2.77;;
6840;SDS011;3458;53.678;14.080;2023-10-13T01:32:50;7.93;;;1.97;;
6840;SDS011;3458;53.678;14.080;2023-10-13T01:35:17;10.43;;;2.07;;
6840;SDS011;3458;53.678;14.080;2023-10-13T01:37:50;6.60;;;2.20;;
6840;SDS011;3458;53.678;14.080;2023-10-13T01:40:16;7.03;;;2.33;;
6840;SDS011;3458;53.678;14.080;2023-10-13T01:42:46;8.23;;;2.63;;
6840;SDS011;3458;53.678;14.080;2023-10-13T01:45:12;12.50;;;2.70;;
6840;SDS011;3458;53.678;14.080;2023-10-13T01:47:39;4.83;;;2.17;;
6840;SDS011;3458;53.678;14.080;2023-10-13T01:50:05;8.13;;;3.00;;
6840;SDS011;3458;53.678;14.080;2023-10-13T01:52:46;6.50;;;1.87;;
6840;SDS011;3458;53.678;14.080;2023-10-13T01:55:12;8.93;;;2.27;;
6840;SDS011;3458;53.678;14.080;2023-10-13T01:57:39;4.20;;;1.93;;
6840;SDS011;3458;53.678;14.080;2023-10-13T02:00:07;8.83;;;2.10;;
6840;SDS011;3458;53.678;14.080;2023-10-13T02:02:44;11.20;;;2.17;;
6840;SDS011;3458;53.678;14.080;2023-10-13T02:05:10;4.63;;;1.70;;
6840;SDS011;3458;53.678;14.080;2023-10-13T02:07:41;3.60;;;1.83;;
6840;SDS011;3458;53.678;14.080;2023-10-13T02:10:10;4.27;;;2.00;;
6840;SDS011;3458;53.678;14.080;2023-10-13T02:12:38;8.77;;;2.13;;
6840;SDS011;3458;53.678;14.080;2023-10-13T02:15:08;9.30;;;2.10;;
6840;SDS011;3458;53.678;14.080;2023-10-13T02:17:47;10.20;;;2.20;;
6840;SDS011;3458;53.678;14.080;2023-10-13T02:20:17;9.30;;;2.70;;
6840;SDS011;3458;53.678;14.080;2023-10-13T02:22:43;2.77;;;1.73;;
6840;SDS011;3458;53.678;14.080;2023-10-13T02:25:14;8.03;;;1.90;;
6840;SDS011;3458;53.678;14.080;2023-10-13T02:27:42;3.50;;;1.53;;
6840;SDS011;3458;53.678;14.080;2023-10-13T02:30:08;11.03;;;2.50;;
6840;SDS011;3458;53.678;14.080;2023-10-13T02:32:39;9.17;;;3.10;;
6840;SDS011;3458;53.678;14.080;2023-10-13T02:35:08;10.90;;;2.80;;
6840;SDS011;3458;53.678;14.080;2023-10-13T02:37:40;7.17;;;2.27;;
6840;SDS011;3458;53.678;14.080;2023-10-13T02:40:09;4.90;;;2.10;;
6840;SDS011;3458;53.678;14.080;2023-10-13T02:42:36;7.50;;;2.60;;
6840;SDS011;3458;53.678;14.080;2023-10-13T02:45:01;5.20;;;1.73;;
6840;SDS011;3458;53.678;14.080;2023-10-13T02:47:29;6.10;;;1.87;;
6840;SDS011;3458;53.678;14.080;2023-10-13T02:49:56;12.73;;;2.53;;
6840;SDS011;3458;53.678;14.080;2023-10-13T02:52:25;6.60;;;2.07;;
6840;SDS011;3458;53.678;14.080;2023-10-13T02:54:51;8.77;;;3.10;;
6840;SDS011;3458;53.678;14.080;2023-10-13T02:57:17;11.20;;;3.03;;
6840;SDS011;3458;53.678;14.080;2023-10-13T02:59:43;3.50;;;1.83;;
6840;SDS011;3458;53.678;14.080;2023-10-13T03:02:13;8.27;;;3.03;;
6840;SDS011;3458;53.678;14.080;2023-10-13T03:04:49;6.10;;;2.00;;
6840;SDS011;3458;53.678;14.080;2023-10-13T03:07:15;8.60;;;2.00;;
6840;SDS011;3458;53.678;14.080;2023-10-13T03:09:47;11.80;;;2.57;;
6840;SDS011;3458;53.678;14.080;2023-10-13T03:12:22;8.33;;;2.30;;
6840;SDS011;3458;53.678;14.080;2023-10-13T03:14:49;3.83;;;1.90;;
6840;SDS011;3458;53.678;14.080;2023-10-13T03:17:22;6.97;;;2.40;;
6840;SDS011;3458;53.678;14.080;2023-10-13T03:20:14;7.30;;;1.77;;
6840;SDS011;3458;53.678;14.080;2023-10-13T03:22:47;8.07;;;2.30;;
6840;SDS011;3458;53.678;14.080;2023-10-13T03:25:17;7.30;;;2.03;;
6840;SDS011;3458;53.678;14.080;2023-10-13T03:27:49;6.90;;;2.67;;
6840;SDS011;3458;53.678;14.080;2023-10-13T03:30:18;6.00;;;2.10;;
6840;SDS011;3458;53.678;14.080;2023-10-13T03:32:45;10.70;;;2.80;;
6840;SDS011;3458;53.678;14.080;2023-10-13T03:35:14;10.77;;;2.90;;
6840;SDS011;3458;53.678;14.080;2023-10-13T03:37:49;6.37;;;2.43;;
6840;SDS011;3458;53.678;14.080;2023-10-13T03:40:17;6.83;;;3.10;;
6840;SDS011;3458;53.678;14.080;2023-10-13T03:42:56;8.87;;;2.33;;
6840;SDS011;3458;53.678;14.080;2023-10-13T03:45:38;13.80;;;3.90;;
6840;SDS011;3458;53.678;14.080;2023-10-13T03:48:09;6.60;;;2.97;;
6840;SDS011;3458;53.678;14.080;2023-10-13T03:50:36;9.50;;;3.00;;
6840;SDS011;3458;53.678;14.080;2023-10-13T03:53:11;8.87;;;3.20;;
6840;SDS011;3458;53.678;14.080;2023-10-13T03:55:38;7.13;;;2.53;;
6840;SDS011;3458;53.678;14.080;2023-10-13T03:58:04;5.37;;;2.80;;
6840;SDS011;3458;53.678;14.080;2023-10-13T04:00:30;17.53;;;3.03;;
6840;SDS011;3458;53.678;14.080;2023-10-13T04:02:56;12.47;;;3.40;;
6840;SDS011;3458;53.678;14.080;2023-10-13T04:05:31;21.30;;;3.17;;
6840;SDS011;3458;53.678;14.080;2023-10-13T04:08:05;10.30;;;2.60;;
6840;SDS011;3458;53.678;14.080;2023-10-13T04:10:54;15.57;;;3.20;;
6840;SDS011;3458;53.678;14.080;2023-10-13T04:13:21;18.23;;;3.23;;
6840;SDS011;3458;53.678;14.080;2023-10-13T04:16:07;12.83;;;3.23;;
6840;SDS011;3458;53.678;14.080;2023-10-13T04:18:48;11.20;;;3.77;;
6840;SDS011;3458;53.678;14.080;2023-10-13T04:21:20;7.07;;;2.80;;
6840;SDS011;3458;53.678;14.080;2023-10-13T04:24:08;11.83;;;3.67;;
6840;SDS011;3458;53.678;14.080;2023-10-13T04:26:50;16.40;;;4.50;;
6840;SDS011;3458;53.678;14.080;2023-10-13T04:29:35;16.70;;;4.73;;
6840;SDS011;3458;53.678;14.080;2023-10-13T04:32:11;14.27;;;4.53;;
6840;SDS011;3458;53.678;14.080;2023-10-13T04:34:44;10.50;;;3.03;;
6840;SDS011;3458;53.678;14.080;2023-10-13T04:37:16;12.77;;;3.23;;
6840;SDS011;3458;53.678;14.080;2023-10-13T04:39:54;7.30;;;3.47;;
6840;SDS011;3458;53.678;14.080;2023-10-13T04:42:34;33.17;;;3.50;;
6840;SDS011;3458;53.678;14.080;2023-10-13T04:45:26;10.70;;;3.90;;
6840;SDS011;3458;53.678;14.080;2023-10-13T04:47:58;9.93;;;3.30;;
6840;SDS011;3458;53.678;14.080;2023-10-13T04:50:44;7.80;;;3.57;;
6840;SDS011;3458;53.678;14.080;2023-10-13T04:53:12;18.83;;;3.73;;
6840;SDS011;3458;53.678;14.080;2023-10-13T04:55:54;16.73;;;3.73;;
6840;SDS011;3458;53.678;14.080;2023-10-13T04:58:29;31.80;;;5.43;;
6840;SDS011;3458;53.678;14.080;2023-10-13T05:01:04;9.00;;;3.60;;
6840;SDS011;3458;53.678;14.080;2023-10-13T05:03:49;8.93;;;4.27;;
6840;SDS011;3458;53.678;14.080;2023-10-13T05:06:30;18.43;;;4.10;;
6840;SDS011;3458;53.678;14.080;2023-10-13T05:09:08;8.17;;;2.90;;
6840;SDS011;3458;53.678;14.080;2023-10-13T05:11:52;23.23;;;4.77;;
6840;SDS011;3458;53.678;14.080;2023-10-13T05:14:37;14.07;;;3.80;;
6840;SDS011;3458;53.678;14.080;2023-10-13T05:17:26;10.57;;;3.90;;
6840;SDS011;3458;53.678;14.080;2023-10-13T05:20:10;17.67;;;4.70;;
6840;SDS011;3458;53.678;14.080;2023-10-13T05:22:54;11.60;;;4.67;;
6840;SDS011;3458;53.678;14.080;2023-10-13T05:25:39;14.37;;;5.00;;
6840;SDS011;3458;53.678;14.080;2023-10-13T05:28:23;15.63;;;4.87;;
6840;SDS011;3458;53.678;14.080;2023-10-13T05:31:07;15.93;;;4.63;;
6840;SDS011;3458;53.678;14.080;2023-10-13T05:33:56;16.33;;;5.00;;
6840;SDS011;3458;53.678;14.080;2023-10-13T05:36:40;19.53;;;4.40;;
6840;SDS011;3458;53.678;14.080;2023-10-13T05:39:24;9.93;;;4.90;;
6840;SDS011;3458;53.678;14.080;2023-10-13T05:42:09;10.03;;;5.10;;
6840;SDS011;3458;53.678;14.080;2023-10-13T05:44:53;10.60;;;4.20;;
6840;SDS011;3458;53.678;14.080;2023-10-13T05:47:42;9.20;;;4.00;;
6840;SDS011;3458;53.678;14.080;2023-10-13T05:50:11;15.80;;;4.50;;
6840;SDS011;3458;53.678;14.080;2023-10-13T05:52:46;9.00;;;4.47;;
6840;SDS011;3458;53.678;14.080;2023-10-13T05:55:25;11.00;;;5.17;;
6840;SDS011;3458;53.678;14.080;2023-10-13T05:58:13;13.40;;;5.00;;
6840;SDS011;3458;53.678;14.080;2023-10-13T06:00:57;21.80;;;6.13;;
6840;SDS011;3458;53.678;14.080;2023-10-13T06:03:41;12.70;;;5.30;;
6840;SDS011;3458;53.678;14.080;2023-10-13T06:06:25;14.97;;;5.40;;
6840;SDS011;3458;53.678;14.080;2023-10-13T06:09:10;17.90;;;6.40;;
6840;SDS011;3458;53.678;14.080;2023-10-13T06:11:54;12.70;;;6.17;;
6840;SDS011;3458;53.678;14.080;2023-10-13T06:14:38;17.17;;;6.30;;
6840;SDS011;3458;53.678;14.080;2023-10-13T06:17:23;22.03;;;7.07;;
6840;SDS011;3458;53.678;14.080;2023-10-13T06:20:07;18.73;;;6.23;;
6840;SDS011;3458;53.678;14.080;2023-10-13T06:22:52;23.27;;;6.97;;
6840;SDS011;3458;53.678;14.080;2023-10-13T06:25:37;13.33;;;7.60;;
6840;SDS011;3458;53.678;14.080;2023-10-13T06:28:22;25.23;;;7.37;;
6840;SDS011;3458;53.678;14.080;2023-10-13T06:31:06;30.57;;;8.33;;
6840;SDS011;3458;53.678;14.080;2023-10-13T06:33:36;74.47;;;14.70;;
6840;SDS011;3458;53.678;14.080;2023-10-13T06:36:07;25.67;;;9.10;;
6840;SDS011;3458;53.678;14.080;2023-10-13T06:38:34;23.60;;;9.27;;
6840;SDS011;3458;53.678;14.080;2023-10-13T06:41:03;26.20;;;11.43;;
6840;SDS011;3458;53.678;14.080;2023-10-13T06:43:33;32.40;;;10.60;;
6840;SDS011;3458;53.678;14.080;2023-10-13T06:46:05;29.87;;;11.93;;
6840;SDS011;3458;53.678;14.080;2023-10-13T06:48:40;28.90;;;9.97;;
6840;SDS011;3458;53.678;14.080;2023-10-13T06:51:06;47.93;;;12.90;;
6840;SDS011;3458;53.678;14.080;2023-10-13T06:53:46;24.27;;;11.07;;
6840;SDS011;3458;53.678;14.080;2023-10-13T06:56:13;32.93;;;13.20;;
6840;SDS011;3458;53.678;14.080;2023-10-13T06:58:46;31.20;;;13.17;;
6840;SDS011;3458;53.678;14.080;2023-10-13T07:01:12;34.30;;;12.13;;
6840;SDS011;3458;53.678;14.080;2023-10-13T07:03:42;39.40;;;13.93;;
6840;SDS011;3458;53.678;14.080;2023-10-13T07:06:08;38.80;;;13.27;;
6840;SDS011;3458;53.678;14.080;2023-10-13T07:08:42;36.90;;;14.43;;
6840;SDS011;3458;53.678;14.080;2023-10-13T07:11:12;41.63;;;14.70;;
6840;SDS011;3458;53.678;14.080;2023-10-13T07:13:47;39.30;;;14.57;;
6840;SDS011;3458;53.678;14.080;2023-10-13T07:16:16;42.00;;;16.80;;
6840;SDS011;3458;53.678;14.080;2023-10-13T07:18:43;40.07;;;16.33;;
6840;SDS011;3458;53.678;14.080;2023-10-13T07:21:15;43.03;;;16.17;;
6840;SDS011;3458;53.678;14.080;2023-10-13T07:23:41;45.40;;;16.13;;
6840;SDS011;3458;53.678;14.080;2023-10-13T07:26:14;36.30;;;14.73;;
6840;SDS011;3458;53.678;14.080;2023-10-13T07:28:42;39.30;;;15.80;;
6840;SDS011;3458;53.678;14.080;2023-10-13T07:31:12;40.20;;;17.50;;
6840;SDS011;3458;53.678;14.080;2023-10-13T07:33:39;44.40;;;17.30;;
6840;SDS011;3458;53.678;14.080;2023-10-13T07:36:06;45.43;;;18.67;;
6840;SDS011;3458;53.678;14.080;2023-10-13T07:38:49;36.13;;;17.20;;
6840;SDS011;3458;53.678;14.080;2023-10-13T07:41:27;44.47;;;18.10;;
6840;SDS011;3458;53.678;14.080;2023-10-13T07:43:55;37.50;;;16.17;;
6840;SDS011;3458;53.678;14.080;2023-10-13T07:46:22;43.87;;;16.80;;
6840;SDS011;3458;53.678;14.080;2023-10-13T07:48:55;37.70;;;16.40;;
6840;SDS011;3458;53.678;14.080;2023-10-13T07:51:33;40.87;;;16.30;;
6840;SDS011;3458;53.678;14.080;2023-10-13T07:54:05;38.30;;;16.80;;
6840;SDS011;3458;53.678;14.080;2023-10-13T07:56:36;46.57;;;16.83;;
6840;SDS011;3458;53.678;14.080;2023-10-13T07:59:04;48.83;;;17.03;;
6840;SDS011;3458;53.678;14.080;2023-10-13T08:01:31;41.07;;;16.83;;
6840;SDS011;3458;53.678;14.080;2023-10-13T08:03:57;48.13;;;17.70;;
6840;SDS011;3458;53.678;14.080;2023-10-13T08:06:35;44.80;;;16.33;;
6840;SDS011;3458;53.678;14.080;2023-10-13T08:09:01;52.67;;;18.23;;
6840;SDS011;3458;53.678;14.080;2023-10-13T08:11:53;40.00;;;17.17;;
6840;SDS011;3458;53.678;14.080;2023-10-13T08:14:19;32.23;;;16.80;;
6840;SDS011;3458;53.678;14.080;2023-10-13T08:16:58;32.23;;;16.07;;
6840;SDS011;3458;53.678;14.080;2023-10-13T08:19:29;34.40;;;15.13;;
6840;SDS011;3458;53.678;14.080;2023-10-13T08:22:11;44.53;;;16.90;;
6840;SDS011;3458;53.678;14.080;2023-10-13T08:24:45;47.60;;;17.10;;
6840;SDS011;3458;53.678;14.080;2023-10-13T08:27:12;35.03;;;16.63;;
6840;SDS011;3458;53.678;14.080;2023-10-13T08:29:39;34.50;;;14.63;;
6840;SDS011;3458;53.678;14.080;2023-10-13T08:32:27;31.30;;;14.43;;
6840;SDS011;3458;53.678;14.080;2023-10-13T08:35:00;37.20;;;15.10;;
6840;SDS011;3458;53.678;14.080;2023-10-13T08:37:32;33.27;;;15.17;;
6840;SDS011;3458;53.678;14.080;2023-10-13T08:40:18;31.80;;;14.30;;
6840;SDS011;3458;53.678;14.080;2023-10-13T08:43:06;28.40;;;14.70;;
6840;SDS011;3458;53.678;14.080;2023-10-13T08:45:37;31.73;;;14.03;;
6840;SDS011;3458;53.678;14.080;2023-10-13T08:48:04;33.63;;;14.67;;
6840;SDS011;3458;53.678;14.080;2023-10-13T08:50:42;28.77;;;14.20;;
6840;SDS011;3458;53.678;14.080;2023-10-13T08:53:24;39.20;;;12.93;;
6840;SDS011;3458;53.678;14.080;2023-10-13T08:55:57;28.63;;;14.40;;
6840;SDS011;3458;53.678;14.080;2023-10-13T08:58:36;26.53;;;14.43;;
6840;SDS011;3458;53.678;14.080;2023-10-13T09:01:26;34.10;;;16.13;;
6840;SDS011;3458;53.678;14.080;2023-10-13T09:04:09;25.43;;;12.83;;
6840;SDS011;3458;53.678;14.080;2023-10-13T09:06:49;24.20;;;14.07;;
6840;SDS011;3458;53.678;14.080;2023-10-13T09:14:44;28.20;;;12.37;;
6840;SDS011;3458;53.678;14.080;2023-10-13T09:17:22;25.67;;;13.30;;
6840;SDS011;3458;53.678;14.080;2023-10-13T09:19:59;24.47;;;13.70;;
6840;SDS011;3458;53.678;14.080;2023-10-13T09:22:44;34.47;;;14.47;;
6840;SDS011;3458;53.678;14.080;2023-10-13T09:25:21;21.70;;;13.57;;
6840;SDS011;3458;53.678;14.080;2023-10-13T09:27:48;21.53;;;13.60;;
6840;SDS011;3458;53.678;14.080;2023-10-13T09:30:18;25.93;;;14.30;;
6840;SDS011;3458;53.678;14.080;2023-10-13T09:32:45;27.57;;;14.23;;
6840;SDS011;3458;53.678;14.080;2023-10-13T09:35:13;24.87;;;15.30;;
6840;SDS011;3458;53.678;14.080;2023-10-13T09:37:43;21.20;;;13.20;;
6840;SDS011;3458;53.678;14.080;2023-10-13T09:40:18;23.93;;;14.10;;
6840;SDS011;3458;53.678;14.080;2023-10-13T09:43:02;27.33;;;14.93;;
6840;SDS011;3458;53.678;14.080;2023-10-13T09:45:33;23.20;;;13.70;;
6840;SDS011;3458;53.678;14.080;2023-10-13T09:48:11;24.00;;;14.03;;
6840;SDS011;3458;53.678;14.080;2023-10-13T09:50:47;23.80;;;13.93;;
6840;SDS011;3458;53.678;14.080;2023-10-13T09:53:13;29.17;;;14.97;;
6840;SDS011;3458;53.678;14.080;2023-10-13T09:55:50;25.07;;;13.90;;
6840;SDS011;3458;53.678;14.080;2023-10-13T09:58:25;24.00;;;14.93;;
6840;SDS011;3458;53.678;14.080;2023-10-13T10:01:01;25.40;;;13.80;;
6840;SDS011;3458;53.678;14.080;2023-10-13T10:03:46;25.57;;;14.37;;
6840;SDS011;3458;53.678;14.080;2023-10-13T10:06:22;24.87;;;13.10;;
6840;SDS011;3458;53.678;14.080;2023-10-13T10:09:08;25.20;;;14.10;;
6840;SDS011;3458;53.678;14.080;2023-10-13T10:14:35;26.93;;;14.63;;
6840;SDS011;3458;53.678;14.080;2023-10-13T10:17:24;25.13;;;14.87;;
6840;SDS011;3458;53.678;14.080;2023-10-13T10:19:54;29.03;;;14.50;;
6840;SDS011;3458;53.678;14.080;2023-10-13T10:22:40;22.87;;;13.97;;
6840;SDS011;3458;53.678;14.080;2023-10-13T10:25:13;27.10;;;15.13;;
6840;SDS011;3458;53.678;14.080;2023-10-13T10:27:56;24.17;;;14.77;;
6840;SDS011;3458;53.678;14.080;2023-10-13T10:30:23;31.80;;;16.53;;
6840;SDS011;3458;53.678;14.080;2023-10-13T10:32:56;25.37;;;16.40;;
6840;SDS011;3458;53.678;14.080;2023-10-13T10:35:29;24.80;;;14.57;;
6840;SDS011;3458;53.678;14.080;2023-10-13T10:38:14;26.73;;;15.47;;
6840;SDS011;3458;53.678;14.080;2023-10-13T10:40:57;27.13;;;14.07;;
6840;SDS011;3458;53.678;14.080;2023-10-13T10:43:23;24.40;;;14.40;;
6840;SDS011;3458;53.678;14.080;2023-10-13T10:46:08;25.27;;;12.70;;
6840;SDS011;3458;53.678;14.080;2023-10-13T10:48:38;29.30;;;12.63;;
6840;SDS011;3458;53.678;14.080;2023-10-13T10:51:08;28.93;;;13.80;;
6840;SDS011;3458;53.678;14.080;2023-10-13T10:53:39;20.10;;;13.13;;
6840;SDS011;3458;53.678;14.080;2023-10-13T10:56:11;22.93;;;12.60;;
6840;SDS011;3458;53.678;14.080;2023-10-13T10:58:54;20.97;;;13.57;;
6840;SDS011;3458;53.678;14.080;2023-10-13T11:01:22;25.63;;;13.17;;
6840;SDS011;3458;53.678;14.080;2023-10-13T11:03:55;23.23;;;12.30;;
6840;SDS011;3458;53.678;14.080;2023-10-13T11:06:22;27.93;;;13.27;;
6840;SDS011;3458;53.678;14.080;2023-10-13T11:09:52;21.47;;;13.13;;
6840;SDS011;3458;53.678;14.080;2023-10-13T11:11:52;19.80;;;12.20;;
6840;SDS011;3458;53.678;14.080;2023-10-13T11:14:25;20.83;;;13.00;;
6840;SDS011;3458;53.678;14.080;2023-10-13T11:16:53;20.17;;;13.97;;
6840;SDS011;3458;53.678;14.080;2023-10-13T11:19:20;25.50;;;13.27;;
6840;SDS011;3458;53.678;14.080;2023-10-13T11:21:58;23.20;;;11.93;;
6840;SDS011;3458;53.678;14.080;2023-10-13T11:24:26;21.60;;;12.50;;
6840;SDS011;3458;53.678;14.080;2023-10-13T11:26:52;24.87;;;11.93;;
6840;SDS011;3458;53.678;14.080;2023-10-13T11:29:19;17.03;;;11.07;;
6840;SDS011;3458;53.678;14.080;2023-10-13T11:31:56;18.40;;;10.87;;
6840;SDS011;3458;53.678;14.080;2023-10-13T11:34:25;19.10;;;11.30;;
6840;SDS011;3458;53.678;14.080;2023-10-13T11:36:55;20.07;;;11.63;;
6840;SDS011;3458;53.678;14.080;2023-10-13T11:39:20;20.90;;;10.90;;
6840;SDS011;3458;53.678;14.080;2023-10-13T11:41:55;17.57;;;11.00;;
6840;SDS011;3458;53.678;14.080;2023-10-13T11:44:21;26.03;;;11.00;;
6840;SDS011;3458;53.678;14.080;2023-10-13T11:46:50;19.13;;;11.27;;
6840;SDS011;3458;53.678;14.080;2023-10-13T11:49:20;18.23;;;10.00;;
6840;SDS011;3458;53.678;14.080;2023-10-13T11:51:52;19.70;;;10.50;;
6840;SDS011;3458;53.678;14.080;2023-10-13T11:54:27;20.70;;;10.10;;
6840;SDS011;3458;53.678;14.080;2023-10-13T11:56:52;14.60;;;8.70;;
6840;SDS011;3458;53.678;14.080;2023-10-13T11:59:18;10.40;;;8.60;;
6840;SDS011;3458;53.678;14.080;2023-10-13T12:01:47;10.93;;;7.67;;
6840;SDS011;3458;53.678;14.080;2023-10-13T12:04:32;12.80;;;8.10;;
6840;SDS011;3458;53.678;14.080;2023-10-13T12:07:06;18.00;;;9.90;;
6840;SDS011;3458;53.678;14.080;2023-10-13T12:10:05;10.40;;;7.70;;
6840;SDS011;3458;53.678;14.080;2023-10-13T12:12:39;10.93;;;8.40;;
6840;SDS011;3458;53.678;14.080;2023-10-13T12:15:05;13.63;;;8.97;;
6840;SDS011;3458;53.678;14.080;2023-10-13T12:17:35;12.23;;;7.50;;
6840;SDS011;3458;53.678;14.080;2023-10-13T12:20:01;17.13;;;7.60;;
6840;SDS011;3458;53.678;14.080;2023-10-13T12:22:33;13.93;;;8.33;;
6840;SDS011;3458;53.678;14.080;2023-10-13T12:25:07;13.57;;;9.90;;
6840;SDS011;3458;53.678;14.080;2023-10-13T12:27:52;11.57;;;9.20;;
6840;SDS011;3458;53.678;14.080;2023-10-13T12:30:22;12.60;;;9.33;;
6840;SDS011;3458;53.678;14.080;2023-10-13T12:33:01;16.70;;;7.83;;
6840;SDS011;3458;53.678;14.080;2023-10-13T12:35:33;15.93;;;8.63;;
6840;SDS011;3458;53.678;14.080;2023-10-13T12:38:00;12.10;;;7.80;;
6840;SDS011;3458;53.678;14.080;2023-10-13T12:40:30;10.83;;;6.87;;
6840;SDS011;3458;53.678;14.080;2023-10-13T12:43:14;11.57;;;7.80;;
6840;SDS011;3458;53.678;14.080;2023-10-13T12:45:58;12.27;;;7.37;;
6840;SDS011;3458;53.678;14.080;2023-10-13T12:48:42;13.97;;;7.00;;
6840;SDS011;3458;53.678;14.080;2023-10-13T12:51:29;9.10;;;6.17;;
6840;SDS011;3458;53.678;14.080;2023-10-13T12:53:58;15.10;;;8.43;;
6840;SDS011;3458;53.678;14.080;2023-10-13T12:56:38;19.30;;;8.30;;
6840;SDS011;3458;53.678;14.080;2023-10-13T12:59:06;10.70;;;7.13;;
6840;SDS011;3458;53.678;14.080;2023-10-13T13:01:38;11.40;;;6.77;;
6840;SDS011;3458;53.678;14.080;2023-10-13T13:04:07;13.27;;;7.23;;
6840;SDS011;3458;53.678;14.080;2023-10-13T13:06:38;20.03;;;7.47;;
6840;SDS011;3458;53.678;14.080;2023-10-13T13:09:05;10.10;;;6.67;;
6840;SDS011;3458;53.678;14.080;2023-10-13T13:11:34;11.00;;;7.13;;
6840;SDS011;3458;53.678;14.080;2023-10-13T13:14:04;10.63;;;7.10;;
6840;SDS011;3458;53.678;14.080;2023-10-13T13:16:33;10.73;;;6.50;;
6840;SDS011;3458;53.678;14.080;2023-10-13T13:19:00;19.20;;;7.23;;
6840;SDS011;3458;53.678;14.080;2023-10-13T13:21:34;10.57;;;6.90;;
6840;SDS011;3458;53.678;14.080;2023-10-13T13:24:01;14.57;;;7.50;;
6840;SDS011;3458;53.678;14.080;2023-10-13T13:26:28;11.10;;;7.40;;
6840;SDS011;3458;53.678;14.080;2023-10-13T13:28:56;10.63;;;6.83;;
6840;SDS011;3458;53.678;14.080;2023-10-13T13:31:22;13.77;;;6.80;;
6840;SDS011;3458;53.678;14.080;2023-10-13T13:33:52;13.30;;;6.87;;
6840;SDS011;3458;53.678;14.080;2023-10-13T13:36:17;14.00;;;6.40;;
6840;SDS011;3458;53.678;14.080;2023-10-13T13:38:44;14.43;;;6.93;;
6840;SDS011;3458;53.678;14.080;2023-10-13T13:41:25;10.37;;;6.90;;
6840;SDS011;3458;53.678;14.080;2023-10-13T13:43:50;17.33;;;5.80;;
6840;SDS011;3458;53.678;14.080;2023-10-13T13:46:20;11.00;;;6.40;;
6840;SDS011;3458;53.678;14.080;2023-10-13T13:48:58;15.00;;;6.73;;
6840;SDS011;3458;53.678;14.080;2023-10-13T13:51:28;7.00;;;5.80;;
6840;SDS011;3458;53.678;14.080;2023-10-13T13:53:55;10.63;;;6.37;;
6840;SDS011;3458;53.678;14.080;2023-10-13T13:56:21;11.87;;;6.50;;
6840;SDS011;3458;53.678;14.080;2023-10-13T13:58:50;15.50;;;5.80;;
6840;SDS011;3458;53.678;14.080;2023-10-13T14:01:16;12.50;;;6.30;;
6840;SDS011;3458;53.678;14.080;2023-10-13T14:03:47;9.73;;;6.57;;
6840;SDS011;3458;53.678;14.080;2023-10-13T14:06:19;19.10;;;6.43;;
6840;SDS011;3458;53.678;14.080;2023-10-13T14:08:48;11.77;;;5.77;;
6840;SDS011;3458;53.678;14.080;2023-10-13T14:11:16;9.47;;;5.80;;
6840;SDS011;3458;53.678;14.080;2023-10-13T14:14:01;11.13;;;6.83;;
6840;SDS011;3458;53.678;14.080;2023-10-13T14:16:29;10.93;;;6.57;;
6840;SDS011;3458;53.678;14.080;2023-10-13T14:18:55;17.20;;;6.00;;
6840;SDS011;3458;53.678;14.080;2023-10-13T14:21:23;14.10;;;6.20;;
6840;SDS011;3458;53.678;14.080;2023-10-13T14:23:49;16.23;;;6.70;;
6840;SDS011;3458;53.678;14.080;2023-10-13T14:26:18;14.63;;;6.03;;
6840;SDS011;3458;53.678;14.080;2023-10-13T14:28:53;10.33;;;6.50;;
6840;SDS011;3458;53.678;14.080;2023-10-13T14:31:32;9.77;;;6.80;;
6840;SDS011;3458;53.678;14.080;2023-10-13T14:33:58;9.17;;;6.03;;
6840;SDS011;3458;53.678;14.080;2023-10-13T14:36:24;15.47;;;6.80;;
6840;SDS011;3458;53.678;14.080;2023-10-13T14:38:54;16.60;;;5.77;;
6840;SDS011;3458;53.678;14.080;2023-10-13T14:41:20;11.20;;;5.30;;
6840;SDS011;3458;53.678;14.080;2023-10-13T14:43:46;7.03;;;5.10;;
6840;SDS011;3458;53.678;14.080;2023-10-13T14:46:19;10.83;;;6.30;;
6840;SDS011;3458;53.678;14.080;2023-10-13T14:48:48;16.50;;;6.40;;
6840;SDS011;3458;53.678;14.080;2023-10-13T14:51:14;10.20;;;6.33;;
6840;SDS011;3458;53.678;14.080;2023-10-13T14:53:43;18.03;;;8.80;;
6840;SDS011;3458;53.678;14.080;2023-10-13T14:56:10;12.77;;;7.20;;
6840;SDS011;3458;53.678;14.080;2023-10-13T14:58:36;12.33;;;6.50;;
6840;SDS011;3458;53.678;14.080;2023-10-13T15:01:13;11.90;;;7.67;;
6840;SDS011;3458;53.678;14.080;2023-10-13T15:03:42;14.63;;;6.90;;
6840;SDS011;3458;53.678;14.080;2023-10-13T15:06:14;16.97;;;5.87;;
6840;SDS011;3458;53.678;14.080;2023-10-13T15:08:42;9.93;;;6.03;;
6840;SDS011;3458;53.678;14.080;2023-10-13T15:11:10;14.10;;;5.57;;
6840;SDS011;3458;53.678;14.080;2023-10-13T15:13:42;17.47;;;6.70;;
6840;SDS011;3458;53.678;14.080;2023-10-13T15:16:18;10.73;;;5.77;;
6840;SDS011;3458;53.678;14.080;2023-10-13T15:18:44;12.60;;;6.80;;
6840;SDS011;3458;53.678;14.080;2023-10-13T15:21:11;11.23;;;5.97;;
6840;SDS011;3458;53.678;14.080;2023-10-13T15:23:38;19.17;;;6.80;;
6840;SDS011;3458;53.678;14.080;2023-10-13T15:26:10;10.53;;;6.13;;
6840;SDS011;3458;53.678;14.080;2023-10-13T15:28:39;16.53;;;6.90;;
6840;SDS011;3458;53.678;14.080;2023-10-13T15:31:13;12.10;;;5.90;;